sensor_id;sensor_type;location;lat;lon;timestamp;pressure;altitude;pressure_sealevel;temperature;humidity
62600;BME280;48671;48.922;2.346;2023-05-20T00:01:19;101887.84;;;15.80;50.17
62600;BME280;48671;48.922;2.346;2023-05-20T00:03:44;101871.66;;;15.69;50.08
62600;BME280;48671;48.922;2.346;2023-05-20T00:06:13;101865.03;;;15.60;50.19
62600;BME280;48671;48.922;2.346;2023-05-20T00:08:41;101868.75;;;15.55;50.45
62600;BME280;48671;48.922;2.346;2023-05-20T00:11:06;101873.91;;;15.56;49.88
62600;BME280;48671;48.922;2.346;2023-05-20T00:13:31;101883.56;;;15.56;50.54
62600;BME280;48671;48.922;2.346;2023-05-20T00:15:59;101864.66;;;15.48;50.92
62600;BME280;48671;48.922;2.346;2023-05-20T00:18:25;101877.66;;;15.51;50.95
62600;BME280;48671;48.922;2.346;2023-05-20T00:20:50;101881.06;;;15.53;50.86
62600;BME280;48671;48.922;2.346;2023-05-20T00:23:19;101860.03;;;15.32;50.65
62600;BME280;48671;48.922;2.346;2023-05-20T00:25:44;101887.53;;;15.44;50.90
62600;BME280;48671;48.922;2.346;2023-05-20T00:28:09;101878.25;;;15.35;51.24
62600;BME280;48671;48.922;2.346;2023-05-20T00:30:38;101867.09;;;15.30;51.28
62600;BME280;48671;48.922;2.346;2023-05-20T00:33:04;101871.59;;;15.27;51.05
62600;BME280;48671;48.922;2.346;2023-05-20T00:35:29;101875.13;;;15.27;51.15
62600;BME280;48671;48.922;2.346;2023-05-20T00:37:54;101888.22;;;15.27;51.32
62600;BME280;48671;48.922;2.346;2023-05-20T00:40:20;101882.97;;;15.27;51.31
62600;BME280;48671;48.922;2.346;2023-05-20T00:42:47;101857.13;;;15.18;51.39
62600;BME280;48671;48.922;2.346;2023-05-20T00:45:12;101876.81;;;15.28;51.47
62600;BME280;48671;48.922;2.346;2023-05-20T00:47:38;101873.16;;;15.32;51.97
62600;BME280;48671;48.922;2.346;2023-05-20T00:50:04;101862.25;;;15.21;51.44
62600;BME280;48671;48.922;2.346;2023-05-20T00:52:31;101840.78;;;15.11;51.04
62600;BME280;48671;48.922;2.346;2023-05-20T00:54:57;101852.72;;;15.18;51.55
62600;BME280;48671;48.922;2.346;2023-05-20T00:57:23;101848.56;;;15.13;51.71
62600;BME280;48671;48.922;2.346;2023-05-20T00:59:49;101844.41;;;15.07;51.80
62600;BME280;48671;48.922;2.346;2023-05-20T01:02:15;101859.19;;;15.10;51.76
62600;BME280;48671;48.922;2.346;2023-05-20T01:04:40;101846.53;;;14.97;52.15
62600;BME280;48671;48.922;2.346;2023-05-20T01:07:11;101854.28;;;15.01;52.58
62600;BME280;48671;48.922;2.346;2023-05-20T01:09:37;101853.50;;;14.98;52.17
62600;BME280;48671;48.922;2.346;2023-05-20T01:12:12;101843.06;;;14.97;52.05
62600;BME280;48671;48.922;2.346;2023-05-20T01:14:47;101823.84;;;14.74;52.50
62600;BME280;48671;48.922;2.346;2023-05-20T01:17:14;101833.56;;;14.72;52.95
62600;BME280;48671;48.922;2.346;2023-05-20T01:19:42;101828.13;;;14.77;52.39
62600;BME280;48671;48.922;2.346;2023-05-20T01:22:08;101837.53;;;14.83;52.88
62600;BME280;48671;48.922;2.346;2023-05-20T01:24:44;101842.69;;;14.84;52.92
62600;BME280;48671;48.922;2.346;2023-05-20T01:27:10;101848.84;;;14.83;53.42
62600;BME280;48671;48.922;2.346;2023-05-20T01:29:38;101824.13;;;14.68;52.88
62600;BME280;48671;48.922;2.346;2023-05-20T01:32:10;101830.97;;;14.71;52.79
62600;BME280;48671;48.922;2.346;2023-05-20T01:34:37;101829.25;;;14.71;52.52
62600;BME280;48671;48.922;2.346;2023-05-20T01:37:04;101828.25;;;14.74;52.79
62600;BME280;48671;48.922;2.346;2023-05-20T01:39:33;101833.56;;;14.72;53.50
62600;BME280;48671;48.922;2.346;2023-05-20T01:42:01;101836.06;;;14.75;52.69
62600;BME280;48671;48.922;2.346;2023-05-20T01:44:26;101831.72;;;14.74;53.25
62600;BME280;48671;48.922;2.346;2023-05-20T01:46:52;101831.66;;;14.76;53.28
62600;BME280;48671;48.922;2.346;2023-05-20T01:49:18;101823.13;;;14.71;52.92
62600;BME280;48671;48.922;2.346;2023-05-20T01:51:43;101835.25;;;14.73;53.11
62600;BME280;48671;48.922;2.346;2023-05-20T01:54:09;101818.41;;;14.57;53.36
62600;BME280;48671;48.922;2.346;2023-05-20T01:56:34;101820.88;;;14.62;53.03
62600;BME280;48671;48.922;2.346;2023-05-20T01:58:59;101806.41;;;14.51;53.77
62600;BME280;48671;48.922;2.346;2023-05-20T02:01:25;101807.19;;;14.54;53.66
62600;BME280;48671;48.922;2.346;2023-05-20T02:03:50;101825.97;;;14.65;53.71
62600;BME280;48671;48.922;2.346;2023-05-20T02:06:15;101808.78;;;14.58;53.25
62600;BME280;48671;48.922;2.346;2023-05-20T02:08:41;101816.63;;;14.58;53.46
62600;BME280;48671;48.922;2.346;2023-05-20T02:11:06;101816.81;;;14.53;53.76
62600;BME280;48671;48.922;2.346;2023-05-20T02:13:31;101822.91;;;14.54;54.02
62600;BME280;48671;48.922;2.346;2023-05-20T02:15:57;101803.41;;;14.37;53.98
62600;BME280;48671;48.922;2.346;2023-05-20T02:18:22;101817.25;;;14.41;54.44
62600;BME280;48671;48.922;2.346;2023-05-20T02:20:50;101823.22;;;14.44;54.35
62600;BME280;48671;48.922;2.346;2023-05-20T02:23:16;101795.13;;;14.26;54.33
62600;BME280;48671;48.922;2.346;2023-05-20T02:25:42;101817.75;;;14.27;54.73
62600;BME280;48671;48.922;2.346;2023-05-20T02:28:08;101793.09;;;14.09;54.21
62600;BME280;48671;48.922;2.346;2023-05-20T02:30:36;101802.66;;;14.10;55.01
62600;BME280;48671;48.922;2.346;2023-05-20T02:33:01;101796.00;;;14.01;54.80
62600;BME280;48671;48.922;2.346;2023-05-20T02:35:26;101821.84;;;14.11;55.75
62600;BME280;48671;48.922;2.346;2023-05-20T02:37:52;101819.41;;;14.06;54.84
62600;BME280;48671;48.922;2.346;2023-05-20T02:40:17;101828.00;;;14.10;55.67
62600;BME280;48671;48.922;2.346;2023-05-20T02:42:43;101803.91;;;14.00;55.25
62600;BME280;48671;48.922;2.346;2023-05-20T02:45:08;101815.13;;;14.03;55.50
62600;BME280;48671;48.922;2.346;2023-05-20T02:47:37;101798.81;;;13.95;55.33
62600;BME280;48671;48.922;2.346;2023-05-20T02:50:02;101812.53;;;14.02;55.69
62600;BME280;48671;48.922;2.346;2023-05-20T02:52:28;101810.66;;;14.05;55.39
62600;BME280;48671;48.922;2.346;2023-05-20T02:54:53;101803.19;;;13.96;56.08
62600;BME280;48671;48.922;2.346;2023-05-20T02:57:18;101797.06;;;13.96;55.90
62600;BME280;48671;48.922;2.346;2023-05-20T02:59:44;101797.03;;;13.97;56.03
62600;BME280;48671;48.922;2.346;2023-05-20T03:02:10;101781.06;;;13.80;56.30
62600;BME280;48671;48.922;2.346;2023-05-20T03:04:35;101791.53;;;13.80;56.33
62600;BME280;48671;48.922;2.346;2023-05-20T03:07:05;101789.81;;;13.79;56.23
62600;BME280;48671;48.922;2.346;2023-05-20T03:09:31;101786.44;;;13.75;57.02
62600;BME280;48671;48.922;2.346;2023-05-20T03:11:57;101804.38;;;13.86;57.24
62600;BME280;48671;48.922;2.346;2023-05-20T03:14:22;101775.13;;;13.75;56.94
62600;BME280;48671;48.922;2.346;2023-05-20T03:16:47;101795.78;;;13.82;56.79
62600;BME280;48671;48.922;2.346;2023-05-20T03:19:15;101808.63;;;13.90;56.78
62600;BME280;48671;48.922;2.346;2023-05-20T03:21:47;101767.47;;;13.70;56.49
62600;BME280;48671;48.922;2.346;2023-05-20T03:24:12;101769.97;;;13.73;57.06
62600;BME280;48671;48.922;2.346;2023-05-20T03:26:37;101789.56;;;13.87;57.33
62600;BME280;48671;48.922;2.346;2023-05-20T03:29:07;101799.00;;;13.91;56.67
62600;BME280;48671;48.922;2.346;2023-05-20T03:31:33;101784.38;;;13.85;57.03
62600;BME280;48671;48.922;2.346;2023-05-20T03:33:58;101781.81;;;13.84;56.92
62600;BME280;48671;48.922;2.346;2023-05-20T03:36:23;101780.78;;;13.88;57.35
62600;BME280;48671;48.922;2.346;2023-05-20T03:38:49;101782.34;;;13.93;57.28
62600;BME280;48671;48.922;2.346;2023-05-20T03:41:14;101791.69;;;14.00;57.05
62600;BME280;48671;48.922;2.346;2023-05-20T03:43:40;101777.03;;;13.95;56.89
62600;BME280;48671;48.922;2.346;2023-05-20T03:46:05;101777.03;;;13.95;56.23
62600;BME280;48671;48.922;2.346;2023-05-20T03:48:31;101764.88;;;13.94;56.92
62600;BME280;48671;48.922;2.346;2023-05-20T03:50:56;101763.22;;;13.91;56.79
62600;BME280;48671;48.922;2.346;2023-05-20T03:53:21;101780.38;;;14.00;56.83
62600;BME280;48671;48.922;2.346;2023-05-20T03:55:47;101788.84;;;14.07;56.54
62600;BME280;48671;48.922;2.346;2023-05-20T03:58:13;101780.41;;;13.98;57.01
62600;BME280;48671;48.922;2.346;2023-05-20T04:00:39;101787.19;;;14.04;56.67
62600;BME280;48671;48.922;2.346;2023-05-20T04:03:05;101764.19;;;13.89;57.12
62600;BME280;48671;48.922;2.346;2023-05-20T04:05:31;101769.19;;;13.95;56.93
62600;BME280;48671;48.922;2.346;2023-05-20T04:07:56;101764.78;;;13.97;56.73
62600;BME280;48671;48.922;2.346;2023-05-20T04:10:22;101756.13;;;13.95;56.84
62600;BME280;48671;48.922;2.346;2023-05-20T04:12:48;101772.63;;;13.97;56.92
62600;BME280;48671;48.922;2.346;2023-05-20T04:15:13;101758.81;;;13.93;57.02
62600;BME280;48671;48.922;2.346;2023-05-20T04:17:40;101772.34;;;14.04;57.01
62600;BME280;48671;48.922;2.346;2023-05-20T04:20:06;101755.09;;;13.99;56.91
62600;BME280;48671;48.922;2.346;2023-05-20T04:22:33;101750.78;;;13.98;56.58
62600;BME280;48671;48.922;2.346;2023-05-20T04:24:58;101762.19;;;13.95;56.92
62600;BME280;48671;48.922;2.346;2023-05-20T04:27:24;101765.84;;;13.91;57.24
62600;BME280;48671;48.922;2.346;2023-05-20T04:29:50;101770.75;;;14.00;57.03
62600;BME280;48671;48.922;2.346;2023-05-20T04:32:47;101758.00;;;13.91;56.90
62600;BME280;48671;48.922;2.346;2023-05-20T04:38:28;101759.13;;;13.84;56.58
62600;BME280;48671;48.922;2.346;2023-05-20T04:41:00;101761.03;;;13.79;57.32
62600;BME280;48671;48.922;2.346;2023-05-20T04:43:26;101766.91;;;13.86;57.43
62600;BME280;48671;48.922;2.346;2023-05-20T04:45:57;101753.38;;;13.74;57.66
62600;BME280;48671;48.922;2.346;2023-05-20T04:48:24;101771.28;;;13.85;57.54
62600;BME280;48671;48.922;2.346;2023-05-20T04:50:50;101771.28;;;13.85;57.61
62600;BME280;48671;48.922;2.346;2023-05-20T04:53:16;101759.56;;;13.72;57.93
62600;BME280;48671;48.922;2.346;2023-05-20T04:55:42;101757.78;;;13.72;57.75
62600;BME280;48671;48.922;2.346;2023-05-20T04:58:08;101746.59;;;13.69;58.00
62600;BME280;48671;48.922;2.346;2023-05-20T05:00:48;101758.69;;;13.71;57.85
62600;BME280;48671;48.922;2.346;2023-05-20T05:03:13;101756.09;;;13.71;57.65
62600;BME280;48671;48.922;2.346;2023-05-20T05:05:38;101758.50;;;13.77;57.67
62600;BME280;48671;48.922;2.346;2023-05-20T05:08:05;101774.94;;;13.81;57.93
62600;BME280;48671;48.922;2.346;2023-05-20T05:10:31;101777.75;;;13.75;57.51
62600;BME280;48671;48.922;2.346;2023-05-20T05:12:56;101751.91;;;13.66;58.11
62600;BME280;48671;48.922;2.346;2023-05-20T05:15:22;101748.44;;;13.65;57.64
62600;BME280;48671;48.922;2.346;2023-05-20T05:17:48;101760.47;;;13.71;58.28
62600;BME280;48671;48.922;2.346;2023-05-20T05:20:13;101732.13;;;13.58;57.82
62600;BME280;48671;48.922;2.346;2023-05-20T05:22:38;101736.50;;;13.58;58.64
62600;BME280;48671;48.922;2.346;2023-05-20T05:25:06;101753.41;;;13.73;58.61
62600;BME280;48671;48.922;2.346;2023-05-20T05:27:32;101748.28;;;13.70;58.49
62600;BME280;48671;48.922;2.346;2023-05-20T05:29:58;101757.56;;;13.78;58.30
62600;BME280;48671;48.922;2.346;2023-05-20T05:32:23;101750.78;;;13.73;58.05
62600;BME280;48671;48.922;2.346;2023-05-20T05:34:49;101763.53;;;13.82;58.24
62600;BME280;48671;48.922;2.346;2023-05-20T05:37:14;101752.44;;;13.75;58.75
62600;BME280;48671;48.922;2.346;2023-05-20T05:39:39;101751.72;;;13.72;57.91
62600;BME280;48671;48.922;2.346;2023-05-20T05:42:05;101775.72;;;13.83;57.88
62600;BME280;48671;48.922;2.346;2023-05-20T05:44:30;101769.69;;;13.81;58.55
62600;BME280;48671;48.922;2.346;2023-05-20T05:46:55;101761.94;;;13.78;58.07
62600;BME280;48671;48.922;2.346;2023-05-20T05:49:21;101762.00;;;13.76;58.16
62600;BME280;48671;48.922;2.346;2023-05-20T05:51:46;101759.44;;;13.75;58.43
62600;BME280;48671;48.922;2.346;2023-05-20T05:54:12;101755.81;;;13.79;57.92
62600;BME280;48671;48.922;2.346;2023-05-20T05:56:37;101748.28;;;13.70;58.23
62600;BME280;48671;48.922;2.346;2023-05-20T05:59:03;101767.00;;;13.82;58.03
62600;BME280;48671;48.922;2.346;2023-05-20T06:01:29;101741.13;;;13.75;58.31
62600;BME280;48671;48.922;2.346;2023-05-20T06:03:54;101752.16;;;13.83;58.32
62600;BME280;48671;48.922;2.346;2023-05-20T06:06:20;101742.69;;;13.80;58.47
62600;BME280;48671;48.922;2.346;2023-05-20T06:08:45;101752.16;;;13.83;58.34
62600;BME280;48671;48.922;2.346;2023-05-20T06:11:11;101751.38;;;13.81;58.59
62600;BME280;48671;48.922;2.346;2023-05-20T06:13:36;101741.06;;;13.76;57.98
62600;BME280;48671;48.922;2.346;2023-05-20T06:16:02;101733.47;;;13.70;58.57
62600;BME280;48671;48.922;2.346;2023-05-20T06:18:27;101740.22;;;13.76;58.95
62600;BME280;48671;48.922;2.346;2023-05-20T06:20:54;101753.91;;;13.84;58.42
62600;BME280;48671;48.922;2.346;2023-05-20T06:23:20;101745.84;;;13.90;58.53
62600;BME280;48671;48.922;2.346;2023-05-20T06:25:45;101748.22;;;13.96;58.14
62600;BME280;48671;48.922;2.346;2023-05-20T06:28:11;101751.59;;;14.00;58.15
62600;BME280;48671;48.922;2.346;2023-05-20T06:30:37;101740.50;;;13.93;58.35
62600;BME280;48671;48.922;2.346;2023-05-20T06:33:02;101727.34;;;13.95;58.22
62600;BME280;48671;48.922;2.346;2023-05-20T06:35:28;101732.53;;;13.96;58.59
62600;BME280;48671;48.922;2.346;2023-05-20T06:37:53;101727.84;;;14.04;57.68
62600;BME280;48671;48.922;2.346;2023-05-20T06:40:19;101735.19;;;14.18;57.99
62600;BME280;48671;48.922;2.346;2023-05-20T06:42:45;101717.03;;;14.14;57.95
62600;BME280;48671;48.922;2.346;2023-05-20T06:45:10;101710.63;;;14.22;57.93
62600;BME280;48671;48.922;2.346;2023-05-20T06:47:36;101724.75;;;14.40;57.91
62600;BME280;48671;48.922;2.346;2023-05-20T06:50:01;101721.84;;;14.48;57.11
62600;BME280;48671;48.922;2.346;2023-05-20T06:52:34;101726.03;;;14.54;57.44
62600;BME280;48671;48.922;2.346;2023-05-20T06:55:03;101730.09;;;14.61;57.12
62600;BME280;48671;48.922;2.346;2023-05-20T06:57:28;101732.59;;;14.64;57.35
62600;BME280;48671;48.922;2.346;2023-05-20T06:59:54;101724.84;;;14.61;56.89
62600;BME280;48671;48.922;2.346;2023-05-20T07:02:20;101712.13;;;14.51;57.09
62600;BME280;48671;48.922;2.346;2023-05-20T07:04:45;101738.56;;;14.67;57.74
62600;BME280;48671;48.922;2.346;2023-05-20T07:07:11;101722.72;;;14.70;57.27
62600;BME280;48671;48.922;2.346;2023-05-20T07:09:36;101728.81;;;14.71;57.64
62600;BME280;48671;48.922;2.346;2023-05-20T07:12:02;101720.72;;;14.77;57.44
62600;BME280;48671;48.922;2.346;2023-05-20T07:14:27;101734.06;;;14.93;57.35
62600;BME280;48671;48.922;2.346;2023-05-20T07:16:53;101727.47;;;15.05;57.08
62600;BME280;48671;48.922;2.346;2023-05-20T07:19:18;101736.31;;;15.22;56.15
62600;BME280;48671;48.922;2.346;2023-05-20T07:21:44;101717.03;;;15.23;56.37
62600;BME280;48671;48.922;2.346;2023-05-20T07:24:09;101707.16;;;15.30;56.00
62600;BME280;48671;48.922;2.346;2023-05-20T07:26:35;101718.06;;;15.41;56.73
62600;BME280;48671;48.922;2.346;2023-05-20T07:29:04;101713.91;;;15.56;55.30
62600;BME280;48671;48.922;2.346;2023-05-20T07:31:29;101716.25;;;15.62;55.87
62600;BME280;48671;48.922;2.346;2023-05-20T07:33:55;101696.47;;;15.55;55.83
62600;BME280;48671;48.922;2.346;2023-05-20T07:36:21;101695.34;;;15.61;54.77
62600;BME280;48671;48.922;2.346;2023-05-20T07:38:46;101700.16;;;15.72;54.79
62600;BME280;48671;48.922;2.346;2023-05-20T07:41:15;101693.28;;;15.88;54.64
62600;BME280;48671;48.922;2.346;2023-05-20T07:43:40;101707.16;;;16.10;54.38
62600;BME280;48671;48.922;2.346;2023-05-20T07:46:05;101698.28;;;16.13;54.39
62600;BME280;48671;48.922;2.346;2023-05-20T07:48:34;101696.13;;;16.21;53.97
62600;BME280;48671;48.922;2.346;2023-05-20T07:51:00;101688.69;;;16.31;53.74
62600;BME280;48671;48.922;2.346;2023-05-20T07:53:25;101678.25;;;16.29;54.09
62600;BME280;48671;48.922;2.346;2023-05-20T07:55:50;101684.50;;;16.46;53.99
62600;BME280;48671;48.922;2.346;2023-05-20T07:58:16;101688.97;;;16.61;53.50
62600;BME280;48671;48.922;2.346;2023-05-20T08:00:43;101673.00;;;16.66;53.44
62600;BME280;48671;48.922;2.346;2023-05-20T08:03:08;101690.91;;;16.94;52.80
62600;BME280;48671;48.922;2.346;2023-05-20T08:05:37;101686.53;;;16.94;52.68
62600;BME280;48671;48.922;2.346;2023-05-20T08:08:03;101685.97;;;17.05;52.40
62600;BME280;48671;48.922;2.346;2023-05-20T08:10:28;101665.50;;;17.12;52.78
62600;BME280;48671;48.922;2.346;2023-05-20T08:12:54;101686.59;;;17.27;52.60
62600;BME280;48671;48.922;2.346;2023-05-20T08:15:20;101672.44;;;17.30;52.62
62600;BME280;48671;48.922;2.346;2023-05-20T08:17:45;101683.78;;;17.48;51.51
62600;BME280;48671;48.922;2.346;2023-05-20T08:20:12;101655.09;;;17.43;51.57
62600;BME280;48671;48.922;2.346;2023-05-20T08:22:43;101663.19;;;17.56;51.87
62600;BME280;48671;48.922;2.346;2023-05-20T08:25:14;101652.59;;;17.73;51.15
62600;BME280;48671;48.922;2.346;2023-05-20T08:27:40;101664.53;;;17.81;51.23
62600;BME280;48671;48.922;2.346;2023-05-20T08:30:06;101658.69;;;17.91;50.83
62600;BME280;48671;48.922;2.346;2023-05-20T08:32:34;101670.91;;;18.08;50.25
62600;BME280;48671;48.922;2.346;2023-05-20T08:34:59;101665.06;;;18.19;50.56
62600;BME280;48671;48.922;2.346;2023-05-20T08:37:27;101644.41;;;18.27;49.98
62600;BME280;48671;48.922;2.346;2023-05-20T08:39:57;101655.03;;;18.41;49.56
62600;BME280;48671;48.922;2.346;2023-05-20T08:42:25;101670.81;;;18.57;48.93
62600;BME280;48671;48.922;2.346;2023-05-20T08:44:51;101647.69;;;18.62;48.62
62600;BME280;48671;48.922;2.346;2023-05-20T08:47:21;101643.06;;;18.82;48.76
62600;BME280;48671;48.922;2.346;2023-05-20T08:49:50;101653.22;;;19.04;48.06
62600;BME280;48671;48.922;2.346;2023-05-20T08:52:20;101636.44;;;19.05;47.55
62600;BME280;48671;48.922;2.346;2023-05-20T08:54:48;101649.56;;;19.21;48.02
62600;BME280;48671;48.922;2.346;2023-05-20T08:57:14;101632.97;;;19.18;47.85
62600;BME280;48671;48.922;2.346;2023-05-20T08:59:44;101662.31;;;19.42;48.60
62600;BME280;48671;48.922;2.346;2023-05-20T09:02:11;101645.31;;;19.61;47.08
62600;BME280;48671;48.922;2.346;2023-05-20T09:04:37;101640.66;;;19.66;47.23
62600;BME280;48671;48.922;2.346;2023-05-20T09:07:02;101649.59;;;19.92;46.67
62600;BME280;48671;48.922;2.346;2023-05-20T09:09:29;101634.09;;;20.00;46.55
62600;BME280;48671;48.922;2.346;2023-05-20T09:11:55;101645.28;;;20.18;45.59
62600;BME280;48671;48.922;2.346;2023-05-20T09:14:20;101630.47;;;20.16;44.54
62600;BME280;48671;48.922;2.346;2023-05-20T09:16:49;101629.03;;;20.24;43.27
62600;BME280;48671;48.922;2.346;2023-05-20T09:19:16;101629.25;;;20.21;43.48
62600;BME280;48671;48.922;2.346;2023-05-20T09:21:41;101636.47;;;20.32;43.53
62600;BME280;48671;48.922;2.346;2023-05-20T09:24:06;101617.19;;;20.30;44.46
62600;BME280;48671;48.922;2.346;2023-05-20T09:26:34;101631.28;;;20.57;44.12
62600;BME280;48671;48.922;2.346;2023-05-20T09:29:01;101623.47;;;20.69;43.13
62600;BME280;48671;48.922;2.346;2023-05-20T09:31:27;101609.75;;;20.76;43.39
62600;BME280;48671;48.922;2.346;2023-05-20T09:33:56;101619.28;;;20.92;42.86
62600;BME280;48671;48.922;2.346;2023-05-20T09:36:22;101603.31;;;20.93;43.77
62600;BME280;48671;48.922;2.346;2023-05-20T09:38:51;101594.97;;;20.99;43.40
62600;BME280;48671;48.922;2.346;2023-05-20T09:41:22;101601.75;;;21.16;42.47
62600;BME280;48671;48.922;2.346;2023-05-20T09:43:49;101589.16;;;21.20;42.41
62600;BME280;48671;48.922;2.346;2023-05-20T09:46:20;101597.09;;;21.45;42.20
62600;BME280;48671;48.922;2.346;2023-05-20T09:48:46;101591.59;;;21.48;41.38
62600;BME280;48671;48.922;2.346;2023-05-20T09:51:16;101591.88;;;21.57;41.96
62600;BME280;48671;48.922;2.346;2023-05-20T09:53:42;101584.34;;;21.63;41.09
62600;BME280;48671;48.922;2.346;2023-05-20T09:56:08;101577.34;;;21.62;40.91
62600;BME280;48671;48.922;2.346;2023-05-20T09:58:37;101590.34;;;21.78;40.79
62600;BME280;48671;48.922;2.346;2023-05-20T10:01:03;101586.28;;;21.85;41.15
62600;BME280;48671;48.922;2.346;2023-05-20T10:03:31;101570.06;;;21.90;40.70
62600;BME280;48671;48.922;2.346;2023-05-20T10:11:18;101579.06;;;22.24;39.84
62600;BME280;48671;48.922;2.346;2023-05-20T10:19:36;101570.00;;;22.51;39.19
62600;BME280;48671;48.922;2.346;2023-05-20T10:22:09;101577.78;;;22.76;38.44
62600;BME280;48671;48.922;2.346;2023-05-20T10:24:37;101556.78;;;22.73;38.31
62600;BME280;48671;48.922;2.346;2023-05-20T10:27:08;101573.63;;;22.96;38.29
62600;BME280;48671;48.922;2.346;2023-05-20T10:29:57;101572.53;;;23.21;37.56
62600;BME280;48671;48.922;2.346;2023-05-20T10:32:26;101557.72;;;23.19;37.52
62600;BME280;48671;48.922;2.346;2023-05-20T10:34:57;101568.47;;;23.28;36.92
62600;BME280;48671;48.922;2.346;2023-05-20T10:37:25;101541.03;;;23.28;37.36
62600;BME280;48671;48.922;2.346;2023-05-20T10:39:51;101559.63;;;23.50;37.03
62600;BME280;48671;48.922;2.346;2023-05-20T10:42:26;101551.75;;;23.60;35.97
62600;BME280;48671;48.922;2.346;2023-05-20T10:44:52;101552.09;;;23.67;36.49
62600;BME280;48671;48.922;2.346;2023-05-20T10:47:17;101545.72;;;23.69;36.54
62600;BME280;48671;48.922;2.346;2023-05-20T10:49:44;101537.25;;;23.75;36.75
62600;BME280;48671;48.922;2.346;2023-05-20T10:52:12;101525.16;;;23.94;35.63
62600;BME280;48671;48.922;2.346;2023-05-20T10:55:17;101539.38;;;24.25;35.77
62600;BME280;48671;48.922;2.346;2023-05-20T10:57:44;101538.47;;;24.36;35.64
62600;BME280;48671;48.922;2.346;2023-05-20T11:00:10;101537.22;;;24.51;34.47
62600;BME280;48671;48.922;2.346;2023-05-20T11:02:37;101530.59;;;24.45;34.55
62600;BME280;48671;48.922;2.346;2023-05-20T11:05:03;101532.88;;;24.50;33.84
62600;BME280;48671;48.922;2.346;2023-05-20T11:07:30;101522.28;;;24.60;33.61
62600;BME280;48671;48.922;2.346;2023-05-20T11:09:59;101525.53;;;24.63;33.74
62600;BME280;48671;48.922;2.346;2023-05-20T11:12:26;101516.81;;;24.61;33.05
62600;BME280;48671;48.922;2.346;2023-05-20T11:14:52;101526.44;;;24.73;32.71
62600;BME280;48671;48.922;2.346;2023-05-20T11:17:18;101516.72;;;24.93;32.00
62600;BME280;48671;48.922;2.346;2023-05-20T11:19:44;101529.50;;;24.99;32.29
62600;BME280;48671;48.922;2.346;2023-05-20T11:22:10;101517.03;;;25.00;32.45
62600;BME280;48671;48.922;2.346;2023-05-20T11:24:36;101529.88;;;25.16;30.69
62600;BME280;48671;48.922;2.346;2023-05-20T11:27:01;101523.00;;;25.13;31.93
62600;BME280;48671;48.922;2.346;2023-05-20T11:29:27;101513.34;;;25.12;30.37
62600;BME280;48671;48.922;2.346;2023-05-20T11:31:56;101522.16;;;25.13;31.34
62600;BME280;48671;48.922;2.346;2023-05-20T11:34:21;101529.19;;;25.23;30.33
62600;BME280;48671;48.922;2.346;2023-05-20T11:36:48;101529.38;;;25.32;31.13
62600;BME280;48671;48.922;2.346;2023-05-20T11:39:20;101509.59;;;25.25;30.20
62600;BME280;48671;48.922;2.346;2023-05-20T11:41:46;101516.47;;;25.37;30.39
62600;BME280;48671;48.922;2.346;2023-05-20T11:44:12;101516.88;;;25.22;30.65
62600;BME280;48671;48.922;2.346;2023-05-20T11:46:45;101511.75;;;25.10;31.00
62600;BME280;48671;48.922;2.346;2023-05-20T11:49:12;101499.88;;;25.14;30.89
62600;BME280;48671;48.922;2.346;2023-05-20T11:51:37;101494.28;;;25.17;31.49
62600;BME280;48671;48.922;2.346;2023-05-20T11:54:05;101511.81;;;25.19;31.39
62600;BME280;48671;48.922;2.346;2023-05-20T11:56:36;101491.50;;;24.97;30.62
62600;BME280;48671;48.922;2.346;2023-05-20T11:59:03;101504.53;;;25.21;30.69
62600;BME280;48671;48.922;2.346;2023-05-20T12:01:34;101490.66;;;25.28;31.64
62600;BME280;48671;48.922;2.346;2023-05-20T12:04:04;101497.59;;;25.59;31.17
62600;BME280;48671;48.922;2.346;2023-05-20T12:06:30;101505.25;;;25.83;31.96
62600;BME280;48671;48.922;2.346;2023-05-20T12:08:59;101500.31;;;26.08;30.98
62600;BME280;48671;48.922;2.346;2023-05-20T12:11:31;101489.94;;;26.05;30.80
62600;BME280;48671;48.922;2.346;2023-05-20T12:13:56;101490.78;;;25.96;30.77
62600;BME280;48671;48.922;2.346;2023-05-20T12:16:22;101497.66;;;25.98;30.92
62600;BME280;48671;48.922;2.346;2023-05-20T12:18:47;101487.56;;;26.02;31.26
62600;BME280;48671;48.922;2.346;2023-05-20T12:21:12;101488.94;;;26.15;31.27
62600;BME280;48671;48.922;2.346;2023-05-20T12:23:38;101492.00;;;26.40;30.58
62600;BME280;48671;48.922;2.346;2023-05-20T12:26:03;101475.00;;;26.41;30.26
62600;BME280;48671;48.922;2.346;2023-05-20T12:28:29;101475.28;;;26.48;30.60
62600;BME280;48671;48.922;2.346;2023-05-20T12:30:56;101470.19;;;26.64;31.09
62600;BME280;48671;48.922;2.346;2023-05-20T12:33:21;101480.88;;;26.45;30.61
62600;BME280;48671;48.922;2.346;2023-05-20T12:35:47;101477.88;;;26.01;30.85
62600;BME280;48671;48.922;2.346;2023-05-20T12:38:12;101490.94;;;25.94;31.76
62600;BME280;48671;48.922;2.346;2023-05-20T12:40:37;101479.72;;;26.00;31.49
62600;BME280;48671;48.922;2.346;2023-05-20T12:43:05;101473.81;;;26.16;31.90
62600;BME280;48671;48.922;2.346;2023-05-20T12:45:31;101484.69;;;26.42;30.34
62600;BME280;48671;48.922;2.346;2023-05-20T12:47:56;101464.19;;;26.52;30.52
62600;BME280;48671;48.922;2.346;2023-05-20T12:50:22;101454.13;;;26.74;31.30
62600;BME280;48671;48.922;2.346;2023-05-20T12:52:48;101460.53;;;26.91;30.25
62600;BME280;48671;48.922;2.346;2023-05-20T12:55:13;101468.16;;;27.13;29.84
62600;BME280;48671;48.922;2.346;2023-05-20T12:57:40;101472.31;;;27.25;29.79
62600;BME280;48671;48.922;2.346;2023-05-20T13:00:07;101455.53;;;27.33;29.22
62600;BME280;48671;48.922;2.346;2023-05-20T13:02:32;101449.00;;;27.45;29.98